Saint Joseph, Minnesota
Current Conditions -  °F | °C
As of 12:53 PM on Tuesday 21 Oct 2014 (Local Time) from KSTC Reporting Station
Clear Clear  
Wind Chill: 57°   Ceiling: Unl
Heat Index: 57°   Visibility: 10mi
Dew Point: 40°   Wind: 12mph
Humidity: 53%   Direction: 130°SE
Pressure: 30.16"   Gusts: NA
Location:  45.56°N, 94.32°W
Report Text: KSTC 211753Z 13010KT 10SM CLR 14/04 A3016 RMK AO2 SLP226 T01390044 10139 20033 58008
Loading
Personal Weather Stations






























Interactive Weather Map
Tropical Storm Tracking
New forecast layout! Learn more

10-Day Weather Forecast

Advertisements
Track Severe Weather on mobile